Estación de Illapel

Ultimos registro cada 15 minutos 40
Estación Fecha / Hora Temperatura Humedad Lluvia Velocidad Dirección Radiación Presion
40 Illapel 04-09-2026 09:45 12,7 31 0 0 6 497 997,2
39 Illapel 04-09-2026 09:30 11,9 31 0 0 10 494 997,2
38 Illapel 04-09-2026 09:15 11,7 33 0 0,9 53 385 997,2
37 Illapel 04-09-2026 09:00 11,3 33 0 0,4 79 392 998,4
36 Illapel 04-09-2026 08:45 10,6 35 0 0 87 323 998,4
35 Illapel 04-09-2026 08:30 9,8 34 0 0,9 128 200 999
34 Illapel 04-09-2026 08:15 9 34 0 0 152 195 999,5
33 Illapel 04-09-2026 08:00 8,6 33 0 0 152 81 999,4
32 Illapel 04-09-2026 07:45 8,4 33 0 0 153 53 999,2
31 Illapel 04-09-2026 07:30 8,3 33 0 0 154 21 999,2
30 Illapel 04-09-2026 07:15 8,1 32 0 0 155 5 998,9
29 Illapel 04-09-2026 07:00 7,9 32 0 0 156 0 998,9
28 Illapel 04-09-2026 06:45 7,9 31 0 0 155 0 998,9
27 Illapel 04-09-2026 06:30 8 31 0 0 155 0 998,9
26 Illapel 04-09-2026 06:15 8,2 31 0 0 155 0 998,7
25 Illapel 04-09-2026 06:00 8,1 31 0 0 183 0 998,5
24 Illapel 04-09-2026 05:45 7,7 31 0 0,4 232 0 998,6
23 Illapel 04-09-2026 05:30 7,7 30 0 0 240 0 998,9
22 Illapel 04-09-2026 05:15 7,6 30 0 0 240 0 999,1
21 Illapel 04-09-2026 05:00 7,8 29 0 0 240 0 999,2
20 Illapel 04-09-2026 04:45 8 30 0 0 240 0 999,6
19 Illapel 04-09-2026 04:30 7,9 30 0 0 240 0 999,6
18 Illapel 04-09-2026 04:15 8,1 30 0 0 240 0 999,4
17 Illapel 04-09-2026 04:00 8,2 30 0 0 240 0 999,6
16 Illapel 04-09-2026 03:45 8,6 30 0 0 240 0 999,7
15 Illapel 04-09-2026 03:30 8,6 30 0 0 240 0 999,7
14 Illapel 04-09-2026 03:15 8,8 29 0 0 240 0 999,4
13 Illapel 04-09-2026 03:00 9,3 30 0 0,4 239 0 999,2
12 Illapel 04-09-2026 02:45 8,9 33 0 0 240 0 999,2
11 Illapel 04-09-2026 02:30 9,1 32 0 0 241 0 999,1
10 Illapel 04-09-2026 02:15 9,4 33 0 0 241 0 999,2
9 Illapel 04-09-2026 02:00 9,3 36 0 0 241 0 998,3
8 Illapel 04-09-2026 01:45 9,6 36 0 0 241 0 997,9
7 Illapel 04-09-2026 01:30 9,8 36 0 0 241 0 882,4
6 Illapel 04-09-2026 01:15 9,7 43 0 0 241 0 882,4
5 Illapel 04-09-2026 01:00 9,9 44 0 0 241 0 882,4
4 Illapel 04-09-2026 00:45 10,2 44 0 0 241 0 882,4
3 Illapel 04-09-2026 00:30 10,4 47 0 0,4 241 0 882,4
2 Illapel 04-09-2026 00:15 10,6 47 0 0 241 0 882,4
1 Illapel 04-09-2026 00:00 10,7 50 0 0,4 239 0 882,4